Time;durP1;ratioP1;P1;durP2;ratioP2;P2;SDS_P1;SDS_P2;PMS_P1;PMS_P2;Temp;Humidity;BMP_temperature;BMP_pressure;BME280_temperature;BME280_humidity;BME280_pressure;Samples;Min_cycle;Max_cycle;Signal;HPM_P1;HPM_P2
2023/05/17 00:00:54;;;;;;;4.57;1.10;;;;;;;;;;10435667;28;20301;-72
2023/05/17 00:05:55;;;;;;;1.85;0.60;;;;;;;;;;10457030;28;20218;-73
2023/05/17 00:10:57;;;;;;;4.60;0.70;;;;;;;;;;10475298;28;20233;-71
2023/05/17 00:15:58;;;;;;;2.97;0.80;;;;;;;;;;10476486;28;20779;-73
2023/05/17 00:20:59;;;;;;;3.63;0.70;;;;;;;;;;10471067;28;20256;-73
2023/05/17 00:26:00;;;;;;;4.55;1.40;;;;;;;;;;10473647;28;20232;-73
2023/05/17 00:31:01;;;;;;;3.45;0.73;;;;;;;;;;10465713;28;20929;-71
2023/05/17 00:36:04;;;;;;;2.25;1.30;;;;;;;;;;10479554;28;20221;-72
2023/05/17 00:41:05;;;;;;;1.60;0.80;;;;;;;;;;10461954;28;20233;-72
2023/05/17 00:46:06;;;;;;;2.35;1.40;;;;;;;;;;10465367;28;20252;-72
2023/05/17 00:51:07;;;;;;;0.77;0.77;;;;;;;;;;10427167;28;20237;-74
2023/05/17 00:56:08;;;;;;;1.92;0.80;;;;;;;;;;10461332;28;20232;-71
2023/05/17 01:01:10;;;;;;;1.27;1.10;;;;;;;;;;10463949;28;20225;-72
2023/05/17 01:06:11;;;;;;;1.30;0.77;;;;;;;;;;10470979;28;20214;-73
2023/05/17 01:11:13;;;;;;;2.17;1.30;;;;;;;;;;10447124;28;20214;-73
2023/05/17 01:16:17;;;;;;;1.13;1.10;;;;;;;;;;10462947;28;20222;-73
2023/05/17 01:21:35;;;;;;;1.35;0.70;;;;;;;;;;10449468;28;20245;-72
2023/05/17 01:26:39;;;;;;;2.08;0.80;;;;;;;;;;10447676;28;20252;-75
2023/05/17 01:31:41;;;;;;;2.80;1.40;;;;;;;;;;10439846;28;20226;-71
2023/05/17 01:36:43;;;;;;;1.58;1.30;;;;;;;;;;10464288;28;20229;-74
2023/05/17 01:41:49;;;;;;;1.88;0.80;;;;;;;;;;10478747;28;20257;-73
2023/05/17 01:46:53;;;;;;;3.78;1.15;;;;;;;;;;10480601;28;20209;-73
2023/05/17 01:52:11;;;;;;;2.80;1.00;;;;;;;;;;10437660;28;20887;-72
2023/05/17 01:57:12;;;;;;;2.92;1.20;;;;;;;;;;10449542;28;20228;-72
2023/05/17 02:02:13;;;;;;;1.77;0.88;;;;;;;;;;10449045;28;20217;-74
2023/05/17 02:07:14;;;;;;;1.25;1.13;;;;;;;;;;10436591;28;20209;-73
2023/05/17 02:12:15;;;;;;;1.35;1.20;;;;;;;;;;10469910;28;20214;-72
2023/05/17 02:17:16;;;;;;;4.72;1.58;;;;;;;;;;10435746;28;20723;-72
2023/05/17 02:22:18;;;;;;;1.17;1.08;;;;;;;;;;10450928;28;20229;-74
2023/05/17 02:27:19;;;;;;;4.10;1.23;;;;;;;;;;10469287;28;20218;-74
2023/05/17 02:32:20;;;;;;;1.67;1.33;;;;;;;;;;10445675;28;20276;-73
2023/05/17 02:37:21;;;;;;;1.98;0.95;;;;;;;;;;10448748;28;20217;-75
2023/05/17 02:42:22;;;;;;;1.67;1.58;;;;;;;;;;10469337;28;20287;-75
2023/05/17 02:47:23;;;;;;;2.83;1.17;;;;;;;;;;10467246;28;20213;-74
2023/05/17 02:52:24;;;;;;;1.38;1.15;;;;;;;;;;10468528;28;20232;-74
2023/05/17 02:57:25;;;;;;;3.25;0.93;;;;;;;;;;10463602;28;20873;-73
2023/05/17 03:02:26;;;;;;;3.75;1.48;;;;;;;;;;10441042;28;20238;-75
2023/05/17 03:07:27;;;;;;;3.53;1.50;;;;;;;;;;10463440;28;20241;-74
2023/05/17 03:12:29;;;;;;;2.33;1.42;;;;;;;;;;10459469;28;20264;-74
2023/05/17 03:17:30;;;;;;;2.17;1.50;;;;;;;;;;10464300;28;20267;-73
2023/05/17 03:22:31;;;;;;;2.35;1.50;;;;;;;;;;10473420;28;20703;-74
2023/05/17 03:27:33;;;;;;;2.33;1.23;;;;;;;;;;10472417;28;20214;-73
2023/05/17 03:32:34;;;;;;;3.42;1.10;;;;;;;;;;10463441;28;20213;-72
2023/05/17 03:37:36;;;;;;;2.35;1.33;;;;;;;;;;10474273;28;20726;-73
2023/05/17 03:42:37;;;;;;;2.95;1.60;;;;;;;;;;10468672;28;20762;-73
2023/05/17 03:47:39;;;;;;;4.10;1.33;;;;;;;;;;10465658;28;20245;-74
2023/05/17 03:52:40;;;;;;;3.90;1.45;;;;;;;;;;10437339;28;20227;-73
2023/05/17 03:57:42;;;;;;;5.45;1.95;;;;;;;;;;10453893;28;20304;-73
2023/05/17 04:02:43;;;;;;;4.28;2.08;;;;;;;;;;10444307;28;20313;-73
2023/05/17 04:07:45;;;;;;;4.53;2.95;;;;;;;;;;10460566;28;20301;-73
2023/05/17 04:12:48;;;;;;;2.88;1.38;;;;;;;;;;10443566;28;20240;-74
2023/05/17 04:17:50;;;;;;;3.75;1.52;;;;;;;;;;10454239;28;20237;-74
2023/05/17 04:22:51;;;;;;;3.13;1.80;;;;;;;;;;10455179;28;20352;-73
2023/05/17 04:27:52;;;;;;;2.05;1.60;;;;;;;;;;10448131;28;20212;-75
2023/05/17 04:32:54;;;;;;;2.40;1.83;;;;;;;;;;10458926;28;20253;-73
2023/05/17 04:37:56;;;;;;;5.75;1.75;;;;;;;;;;10439415;28;20215;-72
2023/05/17 04:42:57;;;;;;;2.88;2.00;;;;;;;;;;10443271;28;20348;-73
2023/05/17 04:48:00;;;;;;;5.50;1.70;;;;;;;;;;10446005;28;20291;-75
2023/05/17 04:53:01;;;;;;;4.82;1.35;;;;;;;;;;10453551;28;20328;-73
2023/05/17 04:58:05;;;;;;;2.67;1.85;;;;;;;;;;10430457;28;20916;-72
2023/05/17 05:03:07;;;;;;;7.47;2.10;;;;;;;;;;10414132;28;20878;-73
2023/05/17 05:08:10;;;;;;;4.18;1.50;;;;;;;;;;10440859;28;20252;-73
2023/05/17 05:13:11;;;;;;;7.18;2.20;;;;;;;;;;10455143;28;20240;-72
2023/05/17 05:18:14;;;;;;;8.38;1.83;;;;;;;;;;10446415;28;20267;-74
2023/05/17 05:23:17;;;;;;;4.70;1.52;;;;;;;;;;10472320;28;20590;-74
2023/05/17 05:28:19;;;;;;;10.60;2.83;;;;;;;;;;10455450;28;20248;-77
2023/05/17 05:33:20;;;;;;;9.30;1.75;;;;;;;;;;10490165;28;20249;-79
2023/05/17 05:38:21;;;;;;;10.32;1.60;;;;;;;;;;10487299;28;20218;-78
2023/05/17 05:43:23;;;;;;;5.28;1.95;;;;;;;;;;10449786;28;20217;-75
2023/05/17 05:48:24;;;;;;;2.80;1.48;;;;;;;;;;10450180;28;20220;-74
2023/05/17 05:53:26;;;;;;;3.17;1.92;;;;;;;;;;10441426;28;20327;-74
2023/05/17 05:58:29;;;;;;;5.97;1.40;;;;;;;;;;10428921;28;20210;-75
2023/05/17 06:03:30;;;;;;;4.32;1.20;;;;;;;;;;10448599;28;20214;-76
2023/05/17 06:08:31;;;;;;;3.55;1.15;;;;;;;;;;10469928;28;20218;-74
2023/05/17 06:13:32;;;;;;;3.50;0.95;;;;;;;;;;10451269;28;20691;-74
2023/05/17 06:18:33;;;;;;;3.72;1.50;;;;;;;;;;10474205;28;20732;-75
2023/05/17 06:23:34;;;;;;;7.43;1.00;;;;;;;;;;10474708;28;20225;-76
2023/05/17 06:28:36;;;;;;;4.22;1.08;;;;;;;;;;10447432;28;20214;-74
2023/05/17 06:33:37;;;;;;;7.55;1.00;;;;;;;;;;10453971;28;20217;-75
2023/05/17 06:38:38;;;;;;;9.13;1.20;;;;;;;;;;10476628;28;20625;-76
2023/05/17 06:43:39;;;;;;;2.28;1.38;;;;;;;;;;10445081;28;20214;-74
2023/05/17 06:48:40;;;;;;;3.85;1.17;;;;;;;;;;10480704;28;20214;-76
2023/05/17 06:53:41;;;;;;;3.90;1.08;;;;;;;;;;10470258;28;20225;-78
2023/05/17 06:58:42;;;;;;;3.50;1.40;;;;;;;;;;10459271;28;21022;-74
2023/05/17 07:03:43;;;;;;;3.08;1.00;;;;;;;;;;10466044;28;20217;-74
2023/05/17 07:08:45;;;;;;;3.67;0.82;;;;;;;;;;10456536;28;20263;-74
2023/05/17 07:13:46;;;;;;;7.03;1.40;;;;;;;;;;10476075;28;20643;-75
2023/05/17 07:18:47;;;;;;;6.82;0.68;;;;;;;;;;10457394;28;20210;-72
2023/05/17 07:23:48;;;;;;;4.80;0.82;;;;;;;;;;10461260;28;20333;-75
2023/05/17 07:28:49;;;;;;;3.80;1.13;;;;;;;;;;10441355;28;20240;-71
2023/05/17 07:33:50;;;;;;;5.65;1.02;;;;;;;;;;10435565;28;20236;-74
2023/05/17 07:38:51;;;;;;;4.10;0.90;;;;;;;;;;10459814;28;20674;-76
2023/05/17 07:43:52;;;;;;;3.42;0.80;;;;;;;;;;10442000;28;20246;-72
2023/05/17 07:48:53;;;;;;;5.13;0.88;;;;;;;;;;10463558;28;20234;-74
2023/05/17 07:53:54;;;;;;;4.00;0.95;;;;;;;;;;10445683;28;20660;-75
2023/05/17 07:58:56;;;;;;;2.83;0.82;;;;;;;;;;10459789;28;20306;-73
2023/05/17 08:03:57;;;;;;;1.80;0.40;;;;;;;;;;10482704;28;20220;-74
2023/05/17 08:08:58;;;;;;;1.20;0.50;;;;;;;;;;10484672;28;20220;-73
2023/05/17 08:14:00;;;;;;;2.20;0.50;;;;;;;;;;10477041;28;20275;-73
2023/05/17 08:19:01;;;;;;;1.73;1.10;;;;;;;;;;10455263;28;20228;-74
2023/05/17 08:24:02;;;;;;;0.60;0.60;;;;;;;;;;10451403;28;21028;-76
2023/05/17 08:29:03;;;;;;;1.27;0.55;;;;;;;;;;10480052;28;20218;-74
2023/05/17 08:34:04;;;;;;;1.45;0.63;;;;;;;;;;10464759;28;20236;-73
2023/05/17 08:39:07;;;;;;;3.20;0.40;;;;;;;;;;10476174;28;20217;-74
2023/05/17 08:44:08;;;;;;;3.13;0.40;;;;;;;;;;10468288;28;20222;-74
2023/05/17 08:49:14;;;;;;;1.92;0.70;;;;;;;;;;10451432;28;20367;-75
2023/05/17 08:54:15;;;;;;;1.48;0.63;;;;;;;;;;10457542;28;20218;-72
2023/05/17 08:59:17;;;;;;;3.83;0.60;;;;;;;;;;10442317;28;20779;-76
2023/05/17 09:04:18;;;;;;;7.03;0.90;;;;;;;;;;10451297;28;20349;-76
2023/05/17 09:09:20;;;;;;;2.60;0.65;;;;;;;;;;10457200;28;20221;-75
2023/05/17 09:14:21;;;;;;;4.55;0.40;;;;;;;;;;10453875;28;20216;-76
2023/05/17 09:19:22;;;;;;;1.42;0.40;;;;;;;;;;10472808;28;20236;-77
2023/05/17 09:24:28;;;;;;;4.35;0.88;;;;;;;;;;10477776;28;20252;-75
2023/05/17 09:29:32;;;;;;;4.53;0.60;;;;;;;;;;10450842;28;20599;-75
2023/05/17 09:34:33;;;;;;;2.63;0.60;;;;;;;;;;10465962;28;20209;-74
2023/05/17 09:39:36;;;;;;;4.45;0.88;;;;;;;;;;10453419;28;20271;-74
2023/05/17 09:44:47;;;;;;;3.67;0.60;;;;;;;;;;10423512;28;20313;-74
2023/05/17 09:49:48;;;;;;;8.13;0.90;;;;;;;;;;10454933;28;20264;-74
2023/05/17 09:54:57;;;;;;;1.33;0.60;;;;;;;;;;10444914;28;20274;-75
2023/05/17 09:59:58;;;;;;;5.07;0.70;;;;;;;;;;10438750;28;20217;-75
2023/05/17 10:05:04;;;;;;;3.08;0.47;;;;;;;;;;10447804;28;20297;-77
2023/05/17 10:10:05;;;;;;;3.28;0.43;;;;;;;;;;10468542;28;20220;-74
2023/05/17 10:15:07;;;;;;;2.88;0.45;;;;;;;;;;10463752;28;20719;-74
2023/05/17 10:20:09;;;;;;;2.13;0.70;;;;;;;;;;10422474;28;20217;-74
2023/05/17 10:25:10;;;;;;;1.95;0.60;;;;;;;;;;10426800;28;20321;-76
2023/05/17 10:30:13;;;;;;;2.97;0.50;;;;;;;;;;10448102;28;20725;-75
2023/05/17 10:35:14;;;;;;;2.75;0.40;;;;;;;;;;10448667;28;20222;-76
2023/05/17 10:40:16;;;;;;;2.13;0.40;;;;;;;;;;10422831;28;20220;-75
2023/05/17 10:45:20;;;;;;;2.78;0.52;;;;;;;;;;10448687;28;20224;-76
2023/05/17 10:50:22;;;;;;;1.08;0.73;;;;;;;;;;10449700;28;20218;-77
2023/05/17 10:55:24;;;;;;;5.10;0.50;;;;;;;;;;10468607;28;20289;-80
2023/05/17 11:00:28;;;;;;;4.07;0.60;;;;;;;;;;10459057;28;20730;-76
2023/05/17 11:05:29;;;;;;;2.17;0.70;;;;;;;;;;10469664;28;20256;-76
2023/05/17 11:10:30;;;;;;;3.00;0.57;;;;;;;;;;10472486;28;20210;-74
2023/05/17 11:15:32;;;;;;;0.95;0.60;;;;;;;;;;10435442;28;20283;-76
2023/05/17 11:20:33;;;;;;;1.92;0.43;;;;;;;;;;10464662;28;20210;-77
2023/05/17 11:25:36;;;;;;;1.48;0.52;;;;;;;;;;10468339;28;20301;-76
2023/05/17 11:30:42;;;;;;;6.40;0.75;;;;;;;;;;10452766;28;20221;-76
2023/05/17 11:35:43;;;;;;;1.05;0.52;;;;;;;;;;10473649;28;20218;-78
2023/05/17 11:40:46;;;;;;;2.67;0.55;;;;;;;;;;10466803;28;20213;-78
2023/05/17 11:45:47;;;;;;;3.72;0.70;;;;;;;;;;10466942;28;20226;-79
2023/05/17 11:50:48;;;;;;;0.77;0.35;;;;;;;;;;10479980;28;20226;-76
2023/05/17 11:55:52;;;;;;;5.45;0.60;;;;;;;;;;10463842;28;20685;-77
2023/05/17 12:00:55;;;;;;;2.10;0.45;;;;;;;;;;10479632;28;20210;-75
2023/05/17 12:06:03;;;;;;;0.65;0.47;;;;;;;;;;10460432;28;20213;-77
2023/05/17 12:11:05;;;;;;;2.20;0.50;;;;;;;;;;10448419;28;20224;-78
2023/05/17 12:16:08;;;;;;;4.40;0.75;;;;;;;;;;10461985;28;21028;-77
2023/05/17 12:21:13;;;;;;;2.72;0.70;;;;;;;;;;10459452;28;20242;-77
2023/05/17 12:26:18;;;;;;;3.50;0.57;;;;;;;;;;10450999;28;20384;-77
2023/05/17 12:31:21;;;;;;;7.65;0.63;;;;;;;;;;10452683;28;20217;-75
2023/05/17 12:36:22;;;;;;;2.22;0.50;;;;;;;;;;10478352;28;20214;-76
2023/05/17 12:41:25;;;;;;;1.98;0.60;;;;;;;;;;10476307;28;20319;-77
2023/05/17 12:46:27;;;;;;;2.17;0.57;;;;;;;;;;10464555;28;20274;-79
2023/05/17 12:51:28;;;;;;;2.67;0.93;;;;;;;;;;10491816;28;20262;-78
2023/05/17 12:56:29;;;;;;;4.25;0.65;;;;;;;;;;10481904;28;20230;-76
2023/05/17 13:01:37;;;;;;;2.33;0.50;;;;;;;;;;10449398;28;20213;-77
2023/05/17 13:06:51;;;;;;;3.53;0.80;;;;;;;;;;10452486;28;20272;-76
2023/05/17 13:11:53;;;;;;;1.88;0.60;;;;;;;;;;10462356;28;20250;-77
2023/05/17 13:16:54;;;;;;;2.45;0.45;;;;;;;;;;10479672;28;20218;-77
2023/05/17 13:21:55;;;;;;;0.82;0.50;;;;;;;;;;10458234;28;20252;-77
2023/05/17 13:26:56;;;;;;;2.05;0.50;;;;;;;;;;10452009;28;20216;-77
2023/05/17 13:31:57;;;;;;;0.85;0.40;;;;;;;;;;10454297;28;20563;-75
2023/05/17 13:36:58;;;;;;;4.45;0.52;;;;;;;;;;10478922;28;20237;-77
2023/05/17 13:41:59;;;;;;;1.95;0.50;;;;;;;;;;10451407;28;20222;-77
2023/05/17 13:47:00;;;;;;;2.58;0.68;;;;;;;;;;10444099;28;21072;-76
2023/05/17 13:52:02;;;;;;;2.85;0.50;;;;;;;;;;10472309;28;20232;-76
2023/05/17 13:57:03;;;;;;;1.02;0.60;;;;;;;;;;10468492;28;20239;-78
2023/05/17 14:02:04;;;;;;;1.83;0.40;;;;;;;;;;10469979;28;20763;-77
2023/05/17 14:07:06;;;;;;;1.85;0.60;;;;;;;;;;10474248;28;20221;-77
2023/05/17 14:12:07;;;;;;;2.90;0.60;;;;;;;;;;10478462;28;20775;-78
2023/05/17 14:17:08;;;;;;;2.40;0.40;;;;;;;;;;10472351;28;20320;-79
2023/05/17 14:22:09;;;;;;;5.15;0.60;;;;;;;;;;10457716;28;20308;-79
2023/05/17 14:27:10;;;;;;;3.80;1.10;;;;;;;;;;10477255;28;20222;-79
2023/05/17 14:32:12;;;;;;;3.97;0.60;;;;;;;;;;10452384;28;21267;-77
2023/05/17 14:37:13;;;;;;;2.47;0.52;;;;;;;;;;10456228;28;20216;-77
2023/05/17 14:42:14;;;;;;;2.25;0.40;;;;;;;;;;10456081;28;20218;-78
2023/05/17 14:47:15;;;;;;;5.40;0.60;;;;;;;;;;10466600;28;20209;-79
2023/05/17 14:52:17;;;;;;;1.65;0.40;;;;;;;;;;10457371;28;20216;-78
2023/05/17 14:57:20;;;;;;;3.75;0.40;;;;;;;;;;10481014;28;20217;-77
2023/05/17 15:02:21;;;;;;;0.82;0.60;;;;;;;;;;10480024;28;20218;-78
2023/05/17 15:07:22;;;;;;;2.85;0.80;;;;;;;;;;10494617;28;20352;-79
2023/05/17 15:12:23;;;;;;;0.60;0.50;;;;;;;;;;10475803;28;20926;-81
2023/05/17 15:17:24;;;;;;;0.82;0.30;;;;;;;;;;10444679;28;20213;-77
2023/05/17 15:22:25;;;;;;;2.35;0.60;;;;;;;;;;10464887;28;20224;-78
2023/05/17 15:27:26;;;;;;;1.13;0.50;;;;;;;;;;10481172;28;20247;-76
2023/05/17 15:32:27;;;;;;;1.20;0.40;;;;;;;;;;10477565;28;20645;-76
2023/05/17 15:37:28;;;;;;;4.40;0.52;;;;;;;;;;10461799;28;20240;-77
2023/05/17 15:42:29;;;;;;;0.63;0.40;;;;;;;;;;10467299;28;20696;-77
2023/05/17 15:47:30;;;;;;;3.03;0.45;;;;;;;;;;10460900;28;20233;-75
2023/05/17 15:52:31;;;;;;;2.30;0.50;;;;;;;;;;10481682;28;20218;-77
2023/05/17 15:57:32;;;;;;;2.15;0.52;;;;;;;;;;10449823;28;20250;-79
2023/05/17 16:02:33;;;;;;;0.82;0.60;;;;;;;;;;10493020;28;20221;-77
2023/05/17 16:07:34;;;;;;;3.33;0.38;;;;;;;;;;10481753;28;20402;-79
2023/05/17 16:12:35;;;;;;;1.15;0.40;;;;;;;;;;10469505;28;20217;-78
2023/05/17 16:17:36;;;;;;;1.20;0.38;;;;;;;;;;10453382;28;20757;-80
2023/05/17 16:22:42;;;;;;;1.27;0.50;;;;;;;;;;10463543;28;20228;-79
2023/05/17 16:27:43;;;;;;;0.32;0.32;;;;;;;;;;10473361;28;20230;-80
2023/05/17 16:32:46;;;;;;;1.45;0.47;;;;;;;;;;10459742;28;20229;-80
2023/05/17 16:37:47;;;;;;;3.55;0.50;;;;;;;;;;10474661;28;20263;-82
2023/05/17 16:42:48;;;;;;;3.53;0.40;;;;;;;;;;10507198;28;20210;-81
2023/05/17 16:47:50;;;;;;;2.70;0.47;;;;;;;;;;10507013;28;20285;-81
2023/05/17 16:52:51;;;;;;;0.73;0.43;;;;;;;;;;10512076;28;20220;-81
2023/05/17 16:57:52;;;;;;;0.77;0.50;;;;;;;;;;10481728;28;20607;-77
2023/05/17 17:02:53;;;;;;;1.27;0.70;;;;;;;;;;10486127;28;20216;-78
2023/05/17 17:07:54;;;;;;;1.75;0.60;;;;;;;;;;10444796;28;20229;-79
2023/05/17 17:12:56;;;;;;;1.13;0.63;;;;;;;;;;10487038;28;20245;-79
2023/05/17 17:17:57;;;;;;;2.63;0.45;;;;;;;;;;10447780;28;20696;-77
2023/05/17 17:22:58;;;;;;;4.43;0.57;;;;;;;;;;10452810;28;20213;-77
2023/05/17 17:27:59;;;;;;;4.75;0.60;;;;;;;;;;10467058;28;20301;-77
2023/05/17 17:33:00;;;;;;;2.45;0.65;;;;;;;;;;10464598;28;20224;-79
2023/05/17 17:38:01;;;;;;;0.50;0.45;;;;;;;;;;10441905;28;20821;-78
2023/05/17 17:43:02;;;;;;;2.03;0.40;;;;;;;;;;10430235;28;20252;-79
2023/05/17 17:48:03;;;;;;;1.40;0.30;;;;;;;;;;10469507;28;20213;-78
2023/05/17 17:53:05;;;;;;;0.95;0.50;;;;;;;;;;10451359;28;20218;-76
2023/05/17 17:58:06;;;;;;;2.03;0.60;;;;;;;;;;10466249;28;22113;-77
2023/05/17 18:03:07;;;;;;;1.55;0.45;;;;;;;;;;10471228;28;20224;-76
2023/05/17 18:08:08;;;;;;;5.00;0.60;;;;;;;;;;10438228;28;20209;-78
2023/05/17 18:13:09;;;;;;;3.13;0.50;;;;;;;;;;10450148;28;20225;-78
2023/05/17 18:18:10;;;;;;;2.90;0.40;;;;;;;;;;10470420;28;20881;-80
2023/05/17 18:23:11;;;;;;;1.88;0.40;;;;;;;;;;10453177;28;20213;-79
2023/05/17 18:28:12;;;;;;;1.48;0.65;;;;;;;;;;10449124;28;20247;-80
2023/05/17 18:33:13;;;;;;;0.85;0.40;;;;;;;;;;10467387;28;20221;-77
2023/05/17 18:38:14;;;;;;;3.65;0.40;;;;;;;;;;10452728;28;20209;-79
2023/05/17 18:43:16;;;;;;;1.23;0.50;;;;;;;;;;10476983;28;20698;-79
2023/05/17 18:48:17;;;;;;;0.93;0.50;;;;;;;;;;10473933;28;20209;-78
2023/05/17 18:53:18;;;;;;;1.38;0.50;;;;;;;;;;10478524;28;20828;-78
2023/05/17 18:58:19;;;;;;;5.25;0.40;;;;;;;;;;10467076;28;20225;-77
2023/05/17 19:03:21;;;;;;;2.15;0.50;;;;;;;;;;10451512;28;20640;-77
2023/05/17 19:08:22;;;;;;;0.73;0.50;;;;;;;;;;10476961;28;20241;-77
2023/05/17 19:13:23;;;;;;;0.45;0.45;;;;;;;;;;10437975;28;20218;-77
2023/05/17 19:18:24;;;;;;;2.15;0.40;;;;;;;;;;10439257;28;20218;-75
2023/05/17 19:23:26;;;;;;;2.63;0.52;;;;;;;;;;10472472;28;20878;-76
2023/05/17 19:28:27;;;;;;;1.35;0.60;;;;;;;;;;10450781;28;20308;-75
2023/05/17 19:33:30;;;;;;;3.88;0.65;;;;;;;;;;10451337;28;20836;-76
2023/05/17 19:38:32;;;;;;;1.17;0.40;;;;;;;;;;10474586;28;20225;-77
2023/05/17 19:43:34;;;;;;;1.30;0.43;;;;;;;;;;10473872;28;20205;-76
2023/05/17 19:48:35;;;;;;;3.45;0.60;;;;;;;;;;10450447;28;20222;-76
2023/05/17 19:53:36;;;;;;;0.40;0.40;;;;;;;;;;10456786;28;20221;-77
2023/05/17 19:58:37;;;;;;;4.18;0.70;;;;;;;;;;10453916;28;20245;-73
2023/05/17 20:03:39;;;;;;;3.67;0.60;;;;;;;;;;10465395;28;20213;-73
2023/05/17 20:08:40;;;;;;;1.25;0.55;;;;;;;;;;10469162;28;20296;-73
2023/05/17 20:13:41;;;;;;;0.73;0.60;;;;;;;;;;10476770;28;20236;-75
2023/05/17 20:18:43;;;;;;;2.40;0.60;;;;;;;;;;10466814;28;20237;-75
2023/05/17 20:23:44;;;;;;;2.60;0.75;;;;;;;;;;10462991;28;20214;-74
2023/05/17 20:28:45;;;;;;;0.98;0.95;;;;;;;;;;10483924;28;20214;-75
2023/05/17 20:33:46;;;;;;;3.17;0.95;;;;;;;;;;10480768;28;20881;-73
2023/05/17 20:38:47;;;;;;;1.50;0.82;;;;;;;;;;10466835;28;20229;-74
2023/05/17 20:43:48;;;;;;;4.05;0.60;;;;;;;;;;10485358;28;20217;-73
2023/05/17 20:48:52;;;;;;;1.10;0.45;;;;;;;;;;10474938;28;20222;-73
2023/05/17 20:53:53;;;;;;;2.45;0.80;;;;;;;;;;10481925;28;20218;-75
2023/05/17 20:58:54;;;;;;;1.02;0.73;;;;;;;;;;10486512;28;20242;-76
2023/05/17 21:03:56;;;;;;;2.15;0.70;;;;;;;;;;10472620;28;20244;-75
2023/05/17 21:09:01;;;;;;;3.60;0.75;;;;;;;;;;10480727;28;20217;-74
2023/05/17 21:14:02;;;;;;;2.53;0.63;;;;;;;;;;10480591;28;20304;-74
2023/05/17 21:19:03;;;;;;;1.42;0.55;;;;;;;;;;10475419;28;20300;-73
2023/05/17 21:24:04;;;;;;;2.15;0.93;;;;;;;;;;10476457;28;20221;-74
2023/05/17 21:29:05;;;;;;;1.20;0.88;;;;;;;;;;10474990;28;20304;-72
2023/05/17 21:34:06;;;;;;;3.53;0.77;;;;;;;;;;10462197;28;20235;-75
2023/05/17 21:39:07;;;;;;;3.80;0.88;;;;;;;;;;10444688;28;20214;-73
2023/05/17 21:44:08;;;;;;;0.68;0.60;;;;;;;;;;10466358;28;20987;-73
2023/05/17 21:49:09;;;;;;;2.40;0.88;;;;;;;;;;10465455;28;20218;-75
2023/05/17 21:54:10;;;;;;;2.45;0.85;;;;;;;;;;10468825;28;20234;-74
2023/05/17 21:59:11;;;;;;;0.70;0.70;;;;;;;;;;10466650;28;20214;-75
2023/05/17 22:04:12;;;;;;;2.90;0.98;;;;;;;;;;10464555;28;20259;-74
2023/05/17 22:09:13;;;;;;;3.05;0.90;;;;;;;;;;10443298;28;20212;-72
2023/05/17 22:14:15;;;;;;;4.40;0.95;;;;;;;;;;10434561;28;20228;-73
2023/05/17 22:19:16;;;;;;;2.92;1.00;;;;;;;;;;10480031;28;20293;-76
2023/05/17 22:24:18;;;;;;;1.05;0.75;;;;;;;;;;10446305;28;20251;-73
2023/05/17 22:29:19;;;;;;;4.03;1.10;;;;;;;;;;10478717;28;20623;-72
2023/05/17 22:34:20;;;;;;;5.40;0.82;;;;;;;;;;10445180;28;20229;-74
2023/05/17 22:39:21;;;;;;;1.95;0.98;;;;;;;;;;10464205;28;20560;-74
2023/05/17 22:44:22;;;;;;;3.85;0.95;;;;;;;;;;10481207;28;20217;-74
2023/05/17 22:49:24;;;;;;;6.22;1.13;;;;;;;;;;10481204;28;20224;-73
2023/05/17 22:54:25;;;;;;;5.78;1.08;;;;;;;;;;10465789;28;20213;-75
2023/05/17 22:59:27;;;;;;;4.28;1.35;;;;;;;;;;10479381;28;20267;-74
2023/05/17 23:04:28;;;;;;;1.95;0.70;;;;;;;;;;10462462;28;20217;-73
2023/05/17 23:09:29;;;;;;;3.85;1.38;;;;;;;;;;10462256;28;20314;-75
2023/05/17 23:14:31;;;;;;;3.30;1.27;;;;;;;;;;10477000;28;20221;-74
2023/05/17 23:19:32;;;;;;;3.88;0.85;;;;;;;;;;10464017;28;20752;-73
2023/05/17 23:24:37;;;;;;;6.05;1.00;;;;;;;;;;10475991;28;20217;-73
2023/05/17 23:29:40;;;;;;;3.65;0.80;;;;;;;;;;10419795;28;20217;-73
2023/05/17 23:34:41;;;;;;;4.32;1.20;;;;;;;;;;10474148;28;20222;-73
2023/05/17 23:39:42;;;;;;;2.20;1.75;;;;;;;;;;10443588;28;21383;-74
2023/05/17 23:44:45;;;;;;;4.25;1.40;;;;;;;;;;10453317;28;20223;-71
2023/05/17 23:49:46;;;;;;;2.85;1.15;;;;;;;;;;10468835;28;20320;-73
2023/05/17 23:54:47;;;;;;;2.33;0.80;;;;;;;;;;10457423;28;20214;-73
2023/05/17 23:59:48;;;;;;;3.35;1.00;;;;;;;;;;10468508;28;20210;-74
